createdAt,value
2022-12-11T00:04:37.343Z,7.08
2022-12-11T00:09:40.996Z,7.16
2022-12-11T00:14:45.709Z,7.28
2022-12-11T00:19:49.081Z,7.21
2022-12-11T00:24:52.741Z,7.06
2022-12-11T00:29:57.500Z,6.50
2022-12-11T00:35:01.716Z,6.23
2022-12-11T00:40:05.985Z,6.81
2022-12-11T00:45:11.930Z,7.11
2022-12-11T00:50:15.732Z,7.11
2022-12-11T00:55:19.289Z,7.28
2022-12-11T01:00:24.340Z,7.04
2022-12-11T01:05:27.881Z,7.15
2022-12-11T01:10:31.580Z,6.88
2022-12-11T01:15:41.762Z,6.95
2022-12-11T01:20:45.409Z,6.96
2022-12-11T01:25:48.756Z,7.10
2022-12-11T01:30:53.564Z,7.04
2022-12-11T01:35:56.969Z,7.09
2022-12-11T01:41:00.407Z,7.10
2022-12-11T01:46:05.477Z,7.20
2022-12-11T01:51:09.043Z,7.23
2022-12-11T01:56:12.754Z,6.83
2022-12-11T02:01:21.138Z,7.00
2022-12-11T02:06:38.856Z,7.19
2022-12-11T02:11:53.386Z,7.27
2022-12-11T02:17:02.483Z,7.32
2022-12-11T02:22:10.396Z,7.36
2022-12-11T02:27:21.485Z,7.35
2022-12-11T02:32:28.581Z,7.36
2022-12-11T02:37:32.922Z,7.37
2022-12-11T02:42:37.278Z,7.34
2022-12-11T02:47:42.790Z,7.37
2022-12-11T02:52:47.388Z,7.22
2022-12-11T02:57:53.042Z,7.15
2022-12-11T03:02:57.953Z,7.07
2022-12-11T03:08:01.397Z,7.01
2022-12-11T03:13:05.425Z,6.94
2022-12-11T03:18:16.575Z,7.12
2022-12-11T03:23:23.282Z,7.09
2022-12-11T03:28:30.793Z,6.77
2022-12-11T03:33:37.472Z,6.82
2022-12-11T03:38:45.336Z,6.88
2022-12-11T03:43:49.188Z,6.91
2022-12-11T03:48:54.854Z,6.88
2022-12-11T03:53:58.877Z,6.80
2022-12-11T03:59:02.237Z,6.87
2022-12-11T04:04:07.081Z,6.83
2022-12-11T04:09:10.471Z,6.81
2022-12-11T04:14:28.786Z,6.70
2022-12-11T04:19:51.202Z,6.49
2022-12-11T04:24:54.719Z,6.84
2022-12-11T04:29:58.065Z,6.74
2022-12-11T04:35:02.861Z,7.01
2022-12-11T04:40:08.126Z,7.01
2022-12-11T04:45:12.567Z,6.87
2022-12-11T04:50:18.477Z,7.06
2022-12-11T04:55:21.822Z,6.86
2022-12-11T05:00:25.176Z,6.89
2022-12-11T05:05:29.892Z,7.06
2022-12-11T05:10:33.317Z,6.83
2022-12-11T05:15:36.645Z,6.89
2022-12-11T05:20:41.356Z,6.89
2022-12-11T05:25:46.008Z,6.83
2022-12-11T05:30:49.454Z,6.76
2022-12-11T05:35:54.364Z,6.84
2022-12-11T05:40:58.847Z,6.95
2022-12-11T05:46:07.192Z,6.88
2022-12-11T05:51:12.194Z,6.83
2022-12-11T05:56:17.661Z,6.80
2022-12-11T06:01:22.776Z,6.54
2022-12-11T06:06:28.336Z,6.86
2022-12-11T06:11:33.353Z,6.80
2022-12-11T06:16:36.774Z,6.82
2022-12-11T06:21:42.065Z,6.87
2022-12-11T06:26:45.433Z,6.93
2022-12-11T06:31:48.873Z,6.74
2022-12-11T06:36:53.627Z,6.70
2022-12-11T06:41:56.952Z,6.85
2022-12-11T06:47:00.409Z,6.88
2022-12-11T06:52:06.875Z,6.93
2022-12-11T06:57:10.354Z,6.84
2022-12-11T07:02:14.850Z,6.78
2022-12-11T07:07:19.824Z,6.65
2022-12-11T07:12:23.197Z,6.70
2022-12-11T07:17:26.847Z,6.70
2022-12-11T07:22:31.568Z,6.57
2022-12-11T07:27:34.940Z,6.67
2022-12-11T07:32:38.592Z,6.67
2022-12-11T07:37:43.449Z,6.59
2022-12-11T07:42:46.841Z,6.56
2022-12-11T07:47:50.204Z,6.69
2022-12-11T07:52:54.977Z,6.65
2022-12-11T07:57:58.312Z,6.59
2022-12-11T08:03:02.034Z,6.63
2022-12-11T08:08:07.027Z,6.70
2022-12-11T08:13:10.884Z,6.72
2022-12-11T08:18:14.415Z,6.68
2022-12-11T08:23:19.148Z,6.68
2022-12-11T08:28:22.520Z,6.58
2022-12-11T08:33:25.960Z,6.76
2022-12-11T08:38:31.261Z,6.78
2022-12-11T08:43:35.816Z,6.57
2022-12-11T08:48:40.610Z,6.70
2022-12-11T08:53:45.557Z,6.74
2022-12-11T08:58:49.017Z,6.71
2022-12-11T09:03:53.695Z,6.75
2022-12-11T09:09:00.456Z,6.72
2022-12-11T09:14:07.571Z,6.75
2022-12-11T09:19:13.812Z,6.65
2022-12-11T09:24:18.537Z,6.60
2022-12-11T09:29:21.838Z,7.09
2022-12-11T09:34:29.067Z,6.94
2022-12-11T09:39:34.348Z,7.09
2022-12-11T09:44:43.281Z,6.99
2022-12-11T09:50:04.933Z,7.30
2022-12-11T09:55:16.615Z,7.30
2022-12-11T10:00:23.716Z,7.25
2022-12-11T10:05:32.064Z,7.07
2022-12-11T10:10:43.330Z,6.96
2022-12-11T10:15:51.810Z,7.49
2022-12-11T10:20:56.659Z,7.41
2022-12-11T10:26:05.595Z,7.67
2022-12-11T10:31:16.169Z,7.73
2022-12-11T10:36:23.317Z,7.74
2022-12-11T10:41:39.051Z,7.86
2022-12-11T10:46:42.438Z,8.09
2022-12-11T10:51:45.815Z,7.77
2022-12-11T10:56:51.482Z,8.00
2022-12-11T11:01:54.902Z,7.79
2022-12-11T11:07:11.458Z,8.17
2022-12-11T11:12:24.520Z,8.04
2022-12-11T11:17:32.108Z,8.08
2022-12-11T11:22:40.273Z,7.91
2022-12-11T11:27:46.750Z,8.11
2022-12-11T11:32:52.401Z,8.33
2022-12-11T11:38:01.739Z,8.10
2022-12-11T11:43:15.213Z,8.16
2022-12-11T11:48:28.971Z,8.80
2022-12-11T11:53:37.261Z,8.70
2022-12-11T11:58:46.789Z,8.90
2022-12-11T12:03:52.935Z,9.14
2022-12-11T12:09:04.658Z,8.79
2022-12-11T12:14:43.535Z,8.89
2022-12-11T12:19:53.092Z,9.01
2022-12-11T12:25:04.253Z,9.16
2022-12-11T12:30:17.383Z,9.37
2022-12-11T12:35:32.817Z,9.42
2022-12-11T12:40:41.653Z,9.19
2022-12-11T12:45:52.948Z,8.63
2022-12-11T12:50:56.794Z,8.78
2022-12-11T12:56:00.700Z,8.88
2022-12-11T13:01:16.747Z,8.87
2022-12-11T13:06:30.521Z,9.02
2022-12-11T13:11:35.136Z,8.88
2022-12-11T13:16:41.214Z,8.78
2022-12-11T13:21:44.648Z,8.59
2022-12-11T13:26:49.296Z,8.39
2022-12-11T13:32:00.855Z,8.35
2022-12-11T13:37:05.355Z,8.34
2022-12-11T13:42:21.550Z,8.31
2022-12-11T13:47:26.977Z,8.21
2022-12-11T13:52:31.635Z,8.28
2022-12-11T13:57:35.044Z,8.30
2022-12-11T14:02:42.460Z,8.22
2022-12-11T14:07:49.859Z,8.13
2022-12-11T14:12:56.695Z,8.16
2022-12-11T14:18:01.803Z,8.13
2022-12-11T14:23:06.281Z,8.00
2022-12-11T14:28:16.809Z,7.92
2022-12-11T14:33:24.902Z,7.83
2022-12-11T14:38:30.531Z,7.75
2022-12-11T14:43:37.045Z,7.54
2022-12-11T14:48:46.074Z,7.40
2022-12-11T14:53:51.784Z,7.25
2022-12-11T14:58:58.496Z,7.10
2022-12-11T15:04:08.588Z,7.06
2022-12-11T15:09:19.331Z,6.94
2022-12-11T15:14:23.952Z,6.72
2022-12-11T15:19:33.016Z,6.58
2022-12-11T15:24:39.256Z,6.46
2022-12-11T15:29:42.700Z,6.36
2022-12-11T15:34:49.306Z,6.23
2022-12-11T15:39:54.060Z,6.15
2022-12-11T15:44:57.733Z,6.00
2022-12-11T15:50:08.663Z,5.84
2022-12-11T15:55:12.621Z,5.74
2022-12-11T16:00:18.578Z,5.62
2022-12-11T16:05:23.373Z,5.53
2022-12-11T16:10:27.448Z,5.38
2022-12-11T16:15:31.084Z,5.25
2022-12-11T16:20:36.663Z,5.15
2022-12-11T16:25:41.238Z,5.06
2022-12-11T16:30:45.374Z,4.96
2022-12-11T16:35:50.133Z,4.81
2022-12-11T16:41:00.858Z,4.69
2022-12-11T16:46:04.483Z,4.60
2022-12-11T16:51:09.280Z,4.53
2022-12-11T16:56:12.854Z,4.44
2022-12-11T17:01:17.129Z,4.44
2022-12-11T17:06:22.006Z,4.30
2022-12-11T17:11:26.163Z,4.30
2022-12-11T17:16:30.406Z,4.30
2022-12-11T17:21:35.285Z,4.28
2022-12-11T17:26:38.618Z,4.25
2022-12-11T17:31:42.052Z,4.24
2022-12-11T17:36:47.133Z,4.21
2022-12-11T17:41:50.495Z,4.20
2022-12-11T17:46:53.883Z,4.15
2022-12-11T17:51:58.568Z,4.14
2022-12-11T17:57:02.202Z,3.98
2022-12-11T18:02:05.645Z,3.95
2022-12-11T18:07:10.348Z,3.90
2022-12-11T18:12:14.010Z,3.85
2022-12-11T18:17:17.352Z,3.84
2022-12-11T18:22:22.810Z,3.85
2022-12-11T18:27:26.360Z,3.88
2022-12-11T18:32:31.239Z,3.86
2022-12-11T18:37:36.041Z,3.88
2022-12-11T18:42:39.488Z,3.92
2022-12-11T18:47:42.826Z,3.94
2022-12-11T18:52:47.529Z,4.03
2022-12-11T18:57:50.948Z,4.19
2022-12-11T19:02:54.457Z,4.27
2022-12-11T19:07:59.191Z,4.32
2022-12-11T19:13:02.549Z,4.33
2022-12-11T19:18:06.003Z,4.39
2022-12-11T19:23:11.769Z,4.31
2022-12-11T19:28:15.498Z,4.28
2022-12-11T19:33:18.888Z,4.18
2022-12-11T19:38:23.877Z,4.13
2022-12-11T19:43:27.217Z,4.00
2022-12-11T19:48:31.625Z,3.92
2022-12-11T19:53:36.765Z,3.82
2022-12-11T19:58:40.176Z,3.69
2022-12-11T20:03:43.653Z,3.62
2022-12-11T20:08:49.157Z,3.54
2022-12-11T20:13:55.325Z,3.51
2022-12-11T20:18:58.730Z,3.42
2022-12-11T20:24:03.540Z,3.25
2022-12-11T20:29:08.169Z,3.22
2022-12-11T20:34:11.562Z,3.16
2022-12-11T20:39:16.345Z,3.09
2022-12-11T20:44:20.198Z,3.03
2022-12-11T20:49:23.578Z,2.98
2022-12-11T20:54:28.325Z,2.92
2022-12-11T20:59:31.713Z,2.89
2022-12-11T21:04:39.487Z,2.87
2022-12-11T21:09:44.573Z,2.88
2022-12-11T21:14:47.973Z,2.85
2022-12-11T21:19:51.529Z,2.80
2022-12-11T21:24:56.288Z,2.78
2022-12-11T21:29:59.691Z,2.74
2022-12-11T21:35:03.199Z,2.67
2022-12-11T21:40:08.908Z,2.59
2022-12-11T21:45:58.801Z,2.55
2022-12-11T21:50:35.904Z,2.51
2022-12-11T21:55:42.368Z,2.45
2022-12-11T22:00:46.526Z,2.34
2022-12-11T22:05:50.389Z,2.31
2022-12-11T22:10:56.563Z,2.24
2022-12-11T22:15:59.934Z,2.25
2022-12-11T22:21:03.337Z,2.21
2022-12-11T22:26:08.493Z,2.19
2022-12-11T22:31:12.343Z,2.12
2022-12-11T22:36:15.782Z,2.03
2022-12-11T22:41:25.197Z,1.95
2022-12-11T22:46:30.678Z,1.95
2022-12-11T22:51:34.216Z,1.86
2022-12-11T22:56:39.306Z,1.84
2022-12-11T23:01:42.734Z,1.83
2022-12-11T23:06:46.157Z,1.80
2022-12-11T23:11:51.117Z,1.80
2022-12-11T23:16:54.572Z,1.78
2022-12-11T23:21:58.012Z,1.76
2022-12-11T23:27:02.829Z,1.69
2022-12-11T23:32:06.406Z,1.70
2022-12-11T23:37:10.625Z,1.65
2022-12-11T23:42:15.409Z,1.65
2022-12-11T23:47:18.774Z,1.64
2022-12-11T23:52:22.561Z,1.63
2022-12-11T23:57:29.292Z,1.56
